Time;durP1;ratioP1;P1;durP2;ratioP2;P2;SDS_P1;SDS_P2;PMS_P1;PMS_P2;Temp;Humidity;BMP_temperature;BMP_pressure;BME280_temperature;BME280_humidity;BME280_pressure;Samples;Min_cycle;Max_cycle;Signal;HPM_P1;HPM_P2
2022/08/15 00:01:23;;;;;;;7.05;2.58;;;;;;;16.11;52.55;99797.53;5032738;28;20068;-75
2022/08/15 00:03:56;;;;;;;3.90;2.20;;;;;;;16.12;52.66;99799.22;5018907;28;20033;-75
2022/08/15 00:06:32;;;;;;;6.47;2.40;;;;;;;16.10;52.34;99795.84;5035620;28;20053;-74
2022/08/15 00:09:01;;;;;;;2.17;2.05;;;;;;;16.09;52.11;99793.28;5035362;28;20051;-75
2022/08/15 00:11:36;;;;;;;2.78;2.53;;;;;;;16.09;52.13;99804.91;5002586;28;20047;-76
2022/08/15 00:14:20;;;;;;;3.15;2.20;;;;;;;16.03;52.42;99806.38;5035433;28;20536;-75
2022/08/15 00:16:48;;;;;;;5.80;2.00;;;;;;;16.10;52.35;99811.16;5019024;28;20041;-75
2022/08/15 00:19:29;;;;;;;5.30;2.67;;;;;;;16.05;52.41;99808.91;5036457;28;20046;-75
2022/08/15 00:21:59;;;;;;;7.68;2.20;;;;;;;15.97;52.65;99817.72;5035210;28;20081;-75
2022/08/15 00:24:28;;;;;;;3.65;2.20;;;;;;;16.07;52.20;99817.72;5018952;28;20144;-75
2022/08/15 00:26:56;;;;;;;3.28;2.33;;;;;;;15.97;52.61;99816.88;5035551;28;20045;-75
2022/08/15 00:29:25;;;;;;;5.85;2.22;;;;;;;15.87;52.88;99816.91;5002183;28;20046;-74
2022/08/15 00:31:55;;;;;;;4.05;2.78;;;;;;;15.83;52.98;99809.25;5034743;28;20136;-75
2022/08/15 00:34:22;;;;;;;4.97;2.42;;;;;;;15.87;53.01;99822.31;5001813;28;20045;-75
2022/08/15 00:36:49;;;;;;;2.97;2.60;;;;;;;15.85;53.07;99821.59;5036138;28;20052;-75
2022/08/15 00:39:19;;;;;;;6.57;2.60;;;;;;;15.83;53.48;99822.72;5034737;28;20042;-74
2022/08/15 00:41:49;;;;;;;5.82;2.78;;;;;;;15.82;53.47;99827.25;5018051;28;20140;-75
2022/08/15 00:44:25;;;;;;;5.25;2.60;;;;;;;15.73;53.41;99820.91;5034633;28;20064;-75
2022/08/15 00:46:58;;;;;;;3.78;2.40;;;;;;;15.81;53.41;99838.19;5035041;28;20095;-75
2022/08/15 00:49:28;;;;;;;4.70;2.30;;;;;;;15.84;53.09;99832.53;5018064;28;20523;-75
2022/08/15 00:51:59;;;;;;;4.88;2.95;;;;;;;15.84;53.05;99833.38;5034504;28;20076;-75
2022/08/15 00:54:31;;;;;;;6.95;2.80;;;;;;;15.78;53.60;99842.88;5018153;28;20187;-74
2022/08/15 00:57:11;;;;;;;3.30;2.65;;;;;;;15.76;53.36;99834.09;5034694;28;20045;-75
2022/08/15 00:59:42;;;;;;;2.83;2.38;;;;;;;15.70;53.53;99831.13;5035585;28;20124;-75
2022/08/15 01:02:10;;;;;;;5.80;3.05;;;;;;;15.66;53.35;99830.56;5034487;28;20038;-76
2022/08/15 01:04:37;;;;;;;3.63;2.60;;;;;;;15.71;53.36;99843.59;5034322;28;20037;-75
2022/08/15 01:07:05;;;;;;;6.57;2.60;;;;;;;15.66;53.58;99835.09;5017822;28;20099;-75
2022/08/15 01:09:31;;;;;;;5.22;2.83;;;;;;;15.66;53.68;99835.09;5034335;28;20056;-75
2022/08/15 01:12:04;;;;;;;10.80;2.78;;;;;;;15.62;53.89;99829.09;5035328;28;20034;-76
2022/08/15 01:14:32;;;;;;;3.85;2.50;;;;;;;15.70;53.68;99837.34;5017049;28;20056;-75
2022/08/15 01:16:59;;;;;;;6.97;2.70;;;;;;;15.66;54.09;99835.94;5034079;28;20037;-76
2022/08/15 01:19:34;;;;;;;4.75;2.67;;;;;;;15.70;54.13;99840.06;5034110;28;20060;-74
2022/08/15 01:22:03;;;;;;;8.18;2.60;;;;;;;15.73;53.94;99847.84;5017725;28;20073;-75
2022/08/15 01:24:47;;;;;;;7.25;3.33;;;;;;;15.78;53.98;99848.25;5017475;28;20048;-75
2022/08/15 01:27:15;;;;;;;12.38;2.88;;;;;;;15.85;54.00;99853.09;5017717;28;20049;-75
2022/08/15 01:29:41;;;;;;;3.75;2.60;;;;;;;15.88;53.82;99858.19;5017326;28;20041;-75
2022/08/15 01:32:07;;;;;;;7.00;3.25;;;;;;;15.86;53.51;99857.47;5017378;28;20037;-75
2022/08/15 01:34:33;;;;;;;8.43;2.83;;;;;;;15.87;53.26;99851.97;5033617;28;20106;-75
2022/08/15 01:36:59;;;;;;;10.95;3.08;;;;;;;15.88;53.20;99860.91;5033609;28;20503;-77
2022/08/15 01:39:37;;;;;;;3.75;2.72;;;;;;;15.88;53.16;99855.50;5017012;28;20416;-77
2022/08/15 01:42:12;;;;;;;6.05;2.88;;;;;;;15.83;53.27;99855.06;5017256;28;20053;-76
2022/08/15 01:44:45;;;;;;;6.75;3.00;;;;;;;15.93;53.42;99855.91;5033191;28;20041;-76
2022/08/15 01:47:47;;;;;;;4.90;3.22;;;;;;;16.00;53.62;99857.88;5017264;28;20500;-75
2022/08/15 01:50:33;;;;;;;7.60;3.17;;;;;;;15.89;53.53;99857.19;5010413;28;20192;-75
2022/08/15 01:53:18;;;;;;;9.68;3.50;;;;;;;16.04;53.56;99866.53;5034067;28;20480;-76
2022/08/15 01:55:57;;;;;;;10.70;3.40;;;;;;;16.07;53.29;99868.09;5017710;28;20432;-76
2022/08/15 01:58:27;;;;;;;10.23;3.13;;;;;;;16.06;53.37;99853.78;5001823;28;20432;-75
2022/08/15 02:00:59;;;;;;;9.70;3.05;;;;;;;16.20;53.00;99872.16;5016905;28;20044;-76
2022/08/15 02:03:33;;;;;;;4.78;3.17;;;;;;;16.26;53.10;99876.13;5016761;28;20048;-75
2022/08/15 02:06:12;;;;;;;5.88;2.95;;;;;;;16.16;53.34;99870.75;5019031;28;20069;-76
2022/08/15 02:08:43;;;;;;;13.63;4.15;;;;;;;16.33;53.07;99876.41;5036364;28;20033;-77
2022/08/15 02:11:16;;;;;;;6.50;3.17;;;;;;;16.26;52.85;99866.19;5052969;28;20056;-76
2022/08/15 02:13:46;;;;;;;12.13;3.75;;;;;;;16.33;53.04;99881.81;5036279;28;20045;-77
2022/08/15 02:16:14;;;;;;;7.35;3.38;;;;;;;16.37;53.09;99883.22;5035940;28;20496;-77
2022/08/15 02:18:41;;;;;;;9.53;3.40;;;;;;;16.37;53.47;99899.41;5020289;28;20033;-76
2022/08/15 02:21:07;;;;;;;9.95;3.10;;;;;;;16.42;52.98;99892.56;5052675;28;20048;-75
2022/08/15 02:23:34;;;;;;;7.53;3.38;;;;;;;16.51;53.08;99896.22;5052744;28;20099;-75
2022/08/15 02:26:02;;;;;;;10.68;3.13;;;;;;;16.56;52.61;99891.25;5019550;28;20048;-76
2022/08/15 02:28:29;;;;;;;14.27;3.47;;;;;;;16.61;52.45;99880.84;5035897;28;20036;-75
2022/08/15 02:30:58;;;;;;;15.18;3.30;;;;;;;16.61;52.61;99890.78;5035567;28;20398;-76
2022/08/15 02:33:27;;;;;;;10.80;3.70;;;;;;;16.74;52.25;99903.00;5036110;28;20051;-76
2022/08/15 02:35:54;;;;;;;9.38;3.20;;;;;;;16.74;52.54;99899.44;5054029;28;20087;-76
2022/08/15 02:38:20;;;;;;;12.85;3.13;;;;;;;16.79;52.17;99905.25;5053679;28;20077;-76
2022/08/15 02:40:49;;;;;;;10.45;3.42;;;;;;;16.86;52.03;99894.69;5052258;28;20056;-74
2022/08/15 02:43:17;;;;;;;13.95;3.70;;;;;;;16.86;51.73;99900.09;5019330;28;20041;-75
2022/08/15 02:45:47;;;;;;;8.07;3.20;;;;;;;16.79;51.81;99889.03;5052328;28;20098;-75
2022/08/15 02:48:15;;;;;;;11.48;3.40;;;;;;;16.91;51.50;99905.91;5036429;28;20200;-74
2022/08/15 02:50:43;;;;;;;7.93;2.90;;;;;;;16.94;51.44;99894.81;5052169;28;20139;-74
2022/08/15 02:53:15;;;;;;;7.18;2.85;;;;;;;16.89;51.24;99894.41;5035504;28;20492;-73
2022/08/15 02:55:43;;;;;;;13.35;3.22;;;;;;;17.07;51.55;99913.34;5035327;28;20515;-74
2022/08/15 02:58:10;;;;;;;11.48;4.07;;;;;;;17.19;51.04;99909.44;5035456;28;20071;-75
2022/08/15 03:00:39;;;;;;;13.45;3.97;;;;;;;17.26;50.71;99912.38;5052152;28;20049;-74
2022/08/15 03:03:10;;;;;;;18.58;4.32;;;;;;;17.22;50.79;99904.56;5018935;28;20059;-75
2022/08/15 03:05:39;;;;;;;14.10;2.90;;;;;;;17.19;50.47;99904.91;5018717;28;20083;-74
2022/08/15 03:08:06;;;;;;;6.13;3.00;;;;;;;17.28;50.64;99911.22;5051550;28;20500;-75
2022/08/15 03:10:35;;;;;;;9.07;2.88;;;;;;;17.36;50.41;99902.38;5034930;28;20098;-80
2022/08/15 03:13:06;;;;;;;11.35;3.33;;;;;;;17.52;50.11;99905.22;5045270;28;20411;-76
2022/08/15 03:15:43;;;;;;;14.00;3.33;;;;;;;17.53;49.99;99898.84;5031770;28;20045;-74
2022/08/15 03:18:10;;;;;;;16.27;3.57;;;;;;;17.58;49.57;99896.50;5015687;28;20053;-74
2022/08/15 03:20:37;;;;;;;16.35;3.50;;;;;;;17.66;49.47;99904.69;5031871;28;20045;-78
2022/08/15 03:23:04;;;;;;;12.48;3.28;;;;;;;17.76;49.60;99911.94;5014942;28;20389;-76
2022/08/15 03:25:40;;;;;;;14.32;3.70;;;;;;;17.91;48.59;99913.06;5032487;28;20042;-73
2022/08/15 03:28:07;;;;;;;10.30;3.88;;;;;;;18.02;48.62;99904.72;5015359;28;20041;-73
2022/08/15 03:30:33;;;;;;;10.98;3.65;;;;;;;18.14;47.87;99908.84;5015068;28;20492;-75
2022/08/15 03:33:04;;;;;;;13.98;4.43;;;;;;;18.23;48.04;99903.50;5015791;28;20052;-75
2022/08/15 03:35:45;;;;;;;11.52;4.00;;;;;;;18.29;47.98;99922.66;5031585;28;20075;-75
2022/08/15 03:38:15;;;;;;;13.57;3.90;;;;;;;18.25;47.91;99906.91;5016268;28;20103;-75
2022/08/15 03:40:43;;;;;;;12.38;3.22;;;;;;;18.32;47.59;99900.72;5015400;28;20061;-73
2022/08/15 03:43:19;;;;;;;12.73;3.53;;;;;;;18.52;47.20;99912.16;4998759;28;20049;-72
2022/08/15 03:45:55;;;;;;;8.50;3.38;;;;;;;18.61;47.19;99915.75;5015039;28;20042;-79
2022/08/15 03:48:29;;;;;;;18.42;4.20;;;;;;;18.69;47.15;99916.66;5015290;28;20048;-77
2022/08/15 03:50:58;;;;;;;9.65;3.72;;;;;;;18.82;46.78;99910.00;5015064;28;20056;-76
2022/08/15 03:53:27;;;;;;;8.73;2.83;;;;;;;18.74;46.72;99910.78;4998952;28;20049;-75
2022/08/15 03:55:53;;;;;;;14.77;4.10;;;;;;;18.85;46.81;99918.66;5031317;28;20037;-76
2022/08/15 03:58:19;;;;;;;15.13;4.07;;;;;;;18.92;46.44;99916.13;5015011;28;20057;-75
2022/08/15 04:00:48;;;;;;;12.00;3.33;;;;;;;19.04;46.10;99917.53;5014977;28;20040;-75
2022/08/15 04:03:16;;;;;;;10.07;3.60;;;;;;;19.14;45.99;99912.84;5030298;28;20386;-75
2022/08/15 04:05:49;;;;;;;12.75;3.13;;;;;;;19.23;45.88;99918.28;4996066;28;20065;-74
2022/08/15 04:08:19;;;;;;;13.60;3.17;;;;;;;19.43;45.45;99911.56;5030469;28;20045;-74
2022/08/15 04:10:46;;;;;;;8.93;3.80;;;;;;;19.61;45.46;99909.56;5030241;28;20111;-76
2022/08/15 04:13:12;;;;;;;21.30;3.92;;;;;;;19.73;44.43;99907.41;5030478;28;20053;-75
2022/08/15 04:15:41;;;;;;;24.63;4.40;;;;;;;19.68;44.59;99914.34;5014368;28;20057;-76
2022/08/15 04:18:09;;;;;;;15.63;3.83;;;;;;;19.71;44.40;99916.72;4997587;28;20099;-74
2022/08/15 04:20:36;;;;;;;19.58;4.30;;;;;;;19.82;44.49;99905.53;5014712;28;20546;-75
2022/08/15 04:23:06;;;;;;;27.50;4.40;;;;;;;20.02;43.12;99917.75;5014824;28;20564;-75
2022/08/15 04:25:37;;;;;;;17.13;3.92;;;;;;;20.08;43.24;99914.38;5014803;28;20041;-76
2022/08/15 04:28:06;;;;;;;27.63;4.47;;;;;;;20.20;43.29;99919.44;5014835;28;20041;-76
2022/08/15 04:30:39;;;;;;;16.63;4.82;;;;;;;20.31;42.90;99916.38;5014506;28;20080;-75
2022/08/15 04:33:09;;;;;;;18.50;4.13;;;;;;;20.26;43.09;99911.47;5030995;28;20099;-76
2022/08/15 04:35:38;;;;;;;20.10;3.97;;;;;;;20.35;43.17;99910.44;4998280;28;20489;-74
2022/08/15 04:38:04;;;;;;;18.55;4.30;;;;;;;20.56;42.57;99920.78;4998361;28;20400;-75
2022/08/15 04:40:32;;;;;;;18.40;4.57;;;;;;;20.77;42.05;99914.78;5014343;28;20079;-75
2022/08/15 04:43:00;;;;;;;27.83;4.15;;;;;;;20.79;41.85;99888.28;5030922;28;20088;-75
2022/08/15 04:45:34;;;;;;;15.52;3.85;;;;;;;20.73;41.72;99899.03;4998311;28;20068;-76
2022/08/15 04:48:02;;;;;;;25.88;4.28;;;;;;;20.85;40.75;99906.63;5015193;28;20045;-76
2022/08/15 04:50:31;;;;;;;24.17;3.78;;;;;;;20.85;40.60;99901.19;5018254;28;20547;-76
2022/08/15 04:53:03;;;;;;;26.73;4.35;;;;;;;20.84;40.61;99901.38;5035858;28;20076;-75
2022/08/15 04:55:29;;;;;;;32.00;5.35;;;;;;;20.95;40.21;99900.97;5018228;28;20045;-76
2022/08/15 04:57:57;;;;;;;48.00;5.53;;;;;;;20.91;39.58;99899.66;5017852;28;20069;-76
2022/08/15 05:00:27;;;;;;;39.22;5.85;;;;;;;20.99;39.73;99899.59;5034782;28;20049;-75
2022/08/15 05:03:09;;;;;;;36.70;6.82;;;;;;;21.01;38.71;99891.25;5017828;28;20041;-76
2022/08/15 05:05:41;;;;;;;38.78;7.15;;;;;;;21.06;38.94;99895.16;5018067;28;20045;-75
2022/08/15 05:08:09;;;;;;;58.40;7.93;;;;;;;21.19;39.38;99902.72;5001579;28;20041;-76
2022/08/15 05:10:35;;;;;;;42.53;6.45;;;;;;;21.19;39.31;99901.88;5017872;28;20148;-75
2022/08/15 05:13:09;;;;;;;41.75;7.25;;;;;;;21.45;38.84;99910.63;5017438;28;20049;-75
2022/08/15 05:15:35;;;;;;;34.63;6.22;;;;;;;21.41;38.78;99903.84;5033982;28;20046;-75
2022/08/15 05:18:02;;;;;;;52.30;6.40;;;;;;;21.52;38.74;99911.59;5017610;28;20531;-75
2022/08/15 05:20:28;;;;;;;43.40;7.78;;;;;;;21.63;38.07;99904.91;5034147;28;20452;-75
2022/08/15 05:23:00;;;;;;;40.63;6.97;;;;;;;21.64;37.88;99905.75;5034216;28;20080;-75
2022/08/15 05:25:28;;;;;;;37.55;5.95;;;;;;;21.74;37.44;99914.47;5001382;28;20048;-76
2022/08/15 05:27:54;;;;;;;30.85;5.82;;;;;;;21.68;37.24;99907.06;5017173;28;20052;-75
2022/08/15 05:30:21;;;;;;;37.10;5.53;;;;;;;21.75;37.19;99902.59;5001527;28;20187;-76
2022/08/15 05:32:48;;;;;;;33.22;6.25;;;;;;;22.00;36.86;99911.41;5033850;28;20091;-75
2022/08/15 05:35:15;;;;;;;31.45;5.93;;;;;;;22.07;36.52;99904.19;5033655;28;20045;-75
2022/08/15 05:37:41;;;;;;;35.83;6.03;;;;;;;22.29;36.37;99903.34;5033813;28;20041;-77
2022/08/15 05:40:09;;;;;;;41.53;5.82;;;;;;;22.29;36.18;99900.63;5033491;28;20401;-76
2022/08/15 05:42:47;;;;;;;35.42;5.22;;;;;;;22.66;36.13;99914.38;5017644;28;20199;-75
2022/08/15 05:45:39;;;;;;;29.33;5.80;;;;;;;23.03;36.09;99900.69;5033359;28;20056;-76
2022/08/15 05:48:17;;;;;;;21.90;4.82;;;;;;;23.28;34.90;99916.72;5016980;28;20038;-77
2022/08/15 05:50:50;;;;;;;23.60;4.50;;;;;;;23.12;34.76;99912.31;5000877;28;20167;-77
2022/08/15 05:53:31;;;;;;;31.13;4.97;;;;;;;23.04;35.32;99909.72;5016672;28;20044;-76
2022/08/15 05:56:04;;;;;;;30.15;5.32;;;;;;;23.16;35.29;99901.88;5017368;28;20088;-76
2022/08/15 05:58:50;;;;;;;20.92;4.60;;;;;;;23.42;35.20;99904.09;5016640;28;20041;-75
2022/08/15 06:01:39;;;;;;;20.67;4.95;;;;;;;23.76;34.69;99917.09;5017893;28;20042;-77
2022/08/15 06:04:37;;;;;;;18.00;4.40;;;;;;;23.51;34.90;99914.72;5018170;28;20041;-77
2022/08/15 06:07:11;;;;;;;14.35;3.70;;;;;;;23.40;35.02;99906.19;5034870;28;20497;-77
2022/08/15 06:09:51;;;;;;;26.77;4.10;;;;;;;23.52;35.32;99900.00;5035295;28;20041;-75
2022/08/15 06:12:35;;;;;;;43.30;4.90;;;;;;;23.86;34.71;99908.59;5016588;28;20045;-76
2022/08/15 06:15:15;;;;;;;21.60;3.60;;;;;;;23.67;34.68;99904.63;5017426;28;20041;-76
2022/08/15 06:17:54;;;;;;;22.45;4.93;;;;;;;23.72;34.84;99910.31;5033348;28;20053;-77
2022/08/15 06:20:31;;;;;;;20.10;4.60;;;;;;;23.94;34.91;99906.56;5049662;28;20049;-76
2022/08/15 06:23:27;;;;;;;28.70;3.55;;;;;;;23.97;34.51;99903.44;5033150;28;20111;-76
2022/08/15 06:26:32;;;;;;;19.98;3.80;;;;;;;24.02;34.86;99910.19;5016499;28;20481;-78
2022/08/15 06:29:07;;;;;;;21.60;4.18;;;;;;;23.94;34.89;99914.75;5031669;28;20053;-75
2022/08/15 06:31:37;;;;;;;21.20;4.45;;;;;;;23.97;34.99;99902.59;5016338;28;20071;-76
2022/08/15 06:34:22;;;;;;;19.52;4.07;;;;;;;23.73;35.14;99901.09;5016725;28;20049;-75
2022/08/15 06:37:20;;;;;;;14.38;4.03;;;;;;;23.85;35.03;99905.00;5016275;28;20041;-77
2022/08/15 06:39:47;;;;;;;14.88;3.38;;;;;;;24.12;34.90;99908.81;5016180;28;20041;-75
2022/08/15 06:42:48;;;;;;;15.57;3.70;;;;;;;24.08;34.55;99907.53;5032637;28;20106;-75
2022/08/15 06:45:25;;;;;;;25.35;4.70;;;;;;;24.24;34.62;99903.66;4978728;28;20038;-77
2022/08/15 06:47:55;;;;;;;28.67;4.45;;;;;;;24.34;34.38;99897.88;4996516;28;20059;-75
2022/08/15 06:50:28;;;;;;;14.00;4.40;;;;;;;24.21;34.76;99895.88;4999507;28;20049;-76
2022/08/15 06:53:21;;;;;;;18.23;4.30;;;;;;;24.35;34.52;99905.88;5032310;28;20441;-76
2022/08/15 06:55:55;;;;;;;30.33;4.63;;;;;;;24.77;34.49;99905.97;5032154;28;20045;-75
2022/08/15 06:58:50;;;;;;;20.58;3.97;;;;;;;24.99;33.48;99909.47;5016281;28;20052;-75
2022/08/15 07:01:53;;;;;;;23.00;4.18;;;;;;;25.01;33.81;99905.47;5030522;28;20080;-76
2022/08/15 07:04:29;;;;;;;22.67;4.53;;;;;;;25.51;33.49;99903.38;5015597;28;20037;-75
2022/08/15 07:07:34;;;;;;;22.27;5.43;;;;;;;25.59;33.04;99902.34;5032436;28;20077;-75
2022/08/15 07:10:24;;;;;;;16.88;4.18;;;;;;;25.39;33.26;99900.41;4999577;28;20060;-76
2022/08/15 07:12:59;;;;;;;18.08;3.90;;;;;;;25.70;33.16;99904.50;5016040;28;20045;-77
2022/08/15 07:16:13;;;;;;;10.90;3.85;;;;;;;26.01;32.58;99903.09;5015427;28;20053;-75
2022/08/15 07:18:44;;;;;;;12.13;3.15;;;;;;;26.30;32.22;99901.84;5027645;28;20049;-76
2022/08/15 07:21:25;;;;;;;14.57;3.58;;;;;;;26.69;31.45;99892.72;5017721;28;20045;-77
2022/08/15 07:24:15;;;;;;;13.35;3.65;;;;;;;26.56;30.54;99893.59;4999561;28;20041;-75
2022/08/15 07:26:50;;;;;;;15.77;3.85;;;;;;;26.46;30.88;99892.34;5015695;28;20049;-76
2022/08/15 07:29:41;;;;;;;12.65;3.55;;;;;;;26.78;31.16;99885.97;5015899;28;20072;-76
2022/08/15 07:32:21;;;;;;;7.57;2.92;;;;;;;27.20;30.75;99894.72;5031625;28;20047;-75
2022/08/15 07:34:59;;;;;;;17.98;3.63;;;;;;;27.32;29.98;99890.22;5031663;28;20049;-75
2022/08/15 07:37:34;;;;;;;17.17;3.83;;;;;;;26.93;30.43;99895.81;5031647;28;20096;-76
2022/08/15 07:40:14;;;;;;;14.90;3.03;;;;;;;26.66;31.37;99892.31;5031552;28;20064;-76
2022/08/15 07:42:42;;;;;;;8.32;3.17;;;;;;;26.59;31.12;99892.31;5015586;28;20504;-78
2022/08/15 07:45:18;;;;;;;5.45;2.85;;;;;;;26.42;31.80;99886.41;5031647;28;20045;-77
2022/08/15 07:48:20;;;;;;;15.02;3.55;;;;;;;26.37;31.26;99892.56;5016562;28;20056;-78
2022/08/15 07:51:14;;;;;;;7.15;2.35;;;;;;;26.61;29.88;99880.09;5016099;28;20045;-76
2022/08/15 07:54:04;;;;;;;16.98;2.63;;;;;;;26.67;30.04;99889.38;5012707;28;20061;-77
2022/08/15 07:56:49;;;;;;;29.08;2.83;;;;;;;26.66;30.18;99887.66;5031861;28;20083;-76
2022/08/15 07:59:20;;;;;;;11.80;2.22;;;;;;;26.64;29.18;99876.09;5015180;28;20141;-76
2022/08/15 08:01:47;;;;;;;12.80;2.60;;;;;;;26.47;30.23;99880.31;5031283;28;20056;-76
2022/08/15 08:04:27;;;;;;;8.20;2.60;;;;;;;26.52;30.23;99878.66;4998446;28;20098;-77
2022/08/15 08:07:10;;;;;;;23.33;2.70;;;;;;;26.76;29.73;99882.59;5031663;28;20052;-77
2022/08/15 08:09:44;;;;;;;7.10;2.38;;;;;;;27.02;29.18;99875.34;5031271;28;20052;-78
2022/08/15 08:12:35;;;;;;;28.73;3.15;;;;;;;27.29;28.00;99882.41;5015265;28;20100;-77
2022/08/15 08:15:12;;;;;;;10.18;2.28;;;;;;;27.31;28.02;99880.31;5050719;28;20059;-76
2022/08/15 08:17:44;;;;;;;10.55;2.45;;;;;;;27.42;28.19;99880.66;5033877;28;20048;-77
2022/08/15 08:20:23;;;;;;;9.98;2.78;;;;;;;27.31;28.31;99880.31;5034180;28;20041;-76
2022/08/15 08:23:02;;;;;;;10.18;2.22;;;;;;;27.11;28.65;99868.56;5019125;28;20063;-77
2022/08/15 08:25:28;;;;;;;;;;;;;;;27.03;28.69;99871.53;5037810;28;20071;-76
2022/08/15 08:28:07;;;;;;;8.20;2.60;;;;;;;27.26;28.99;99877.38;5036917;28;19923;-76
2022/08/15 08:30:46;;;;;;;6.60;3.17;;;;;;;27.84;28.14;99873.69;5037205;28;20124;-76
2022/08/15 08:33:37;;;;;;;17.42;2.95;;;;;;;27.61;28.12;99874.25;5020718;28;20056;-75
2022/08/15 08:36:26;;;;;;;12.70;2.78;;;;;;;27.73;28.32;99877.94;5037190;28;20049;-76
2022/08/15 08:39:20;;;;;;;15.07;3.60;;;;;;;27.71;28.07;99880.06;5035527;28;20136;-75
2022/08/15 08:42:05;;;;;;;10.13;2.83;;;;;;;27.74;28.82;99882.41;5020029;28;20076;-76
2022/08/15 08:45:01;;;;;;;12.15;3.28;;;;;;;27.75;28.42;99870.34;5036682;28;20052;-75
2022/08/15 08:48:04;;;;;;;18.52;3.97;;;;;;;27.71;28.56;99880.06;5020627;28;20052;-76
2022/08/15 08:50:59;;;;;;;17.00;3.05;;;;;;;27.73;28.47;99872.47;5036747;28;20136;-77
2022/08/15 08:53:42;;;;;;;10.20;2.80;;;;;;;28.29;28.42;99877.13;5020380;28;20562;-77
2022/08/15 08:56:16;;;;;;;10.25;2.47;;;;;;;28.80;27.61;99873.22;5037048;28;20444;-76
2022/08/15 08:58:49;;;;;;;12.10;3.00;;;;;;;28.56;27.37;99871.41;5053351;28;20057;-76
2022/08/15 09:01:19;;;;;;;14.93;3.05;;;;;;;28.14;27.66;99879.38;5053258;28;20045;-75
2022/08/15 09:03:51;;;;;;;11.35;2.70;;;;;;;28.14;28.23;99868.38;5020491;28;20041;-76
2022/08/15 09:06:23;;;;;;;18.13;3.90;;;;;;;28.36;26.98;99865.19;5017650;28;20057;-76
2022/08/15 09:08:56;;;;;;;13.30;3.10;;;;;;;28.73;26.92;99860.63;5017922;28;20115;-75
2022/08/15 09:11:55;;;;;;;12.00;2.72;;;;;;;28.94;26.38;99862.06;5035338;28;20049;-76
2022/08/15 09:14:34;;;;;;;11.40;2.70;;;;;;;28.98;26.40;99855.06;5017361;28;20050;-76
2022/08/15 09:17:15;;;;;;;12.52;2.45;;;;;;;28.81;26.72;99865.81;5035313;28;20050;-76
2022/08/15 09:19:41;;;;;;;12.30;2.65;;;;;;;28.87;26.51;99862.16;5017453;28;20050;-76
2022/08/15 09:22:08;;;;;;;15.02;2.70;;;;;;;29.04;26.06;99865.16;5017486;28;20046;-77
2022/08/15 09:24:34;;;;;;;10.23;2.45;;;;;;;28.94;26.02;99867.59;5017513;28;20038;-77
2022/08/15 09:27:00;;;;;;;5.18;2.55;;;;;;;28.60;25.75;99861.63;5017420;28;20037;-77
2022/08/15 09:29:32;;;;;;;21.77;2.92;;;;;;;28.99;26.07;99856.75;5035016;28;20059;-75
2022/08/15 09:32:08;;;;;;;20.98;2.90;;;;;;;29.10;25.41;99858.72;5017607;28;20041;-75
2022/08/15 09:35:04;;;;;;;14.52;2.90;;;;;;;28.95;25.91;99848.06;5032815;28;20065;-76
2022/08/15 09:37:55;;;;;;;9.82;2.45;;;;;;;29.22;26.06;99845.84;5017262;28;20145;-76
2022/08/15 09:40:41;;;;;;;9.70;2.55;;;;;;;29.58;26.04;99846.88;5017306;28;20080;-76
2022/08/15 09:44:04;;;;;;;14.90;2.42;;;;;;;29.56;25.84;99854.47;5017558;28;20408;-77
2022/08/15 09:46:35;;;;;;;10.00;2.78;;;;;;;29.54;25.34;99851.13;4996260;28;20049;-75
2022/08/15 09:49:04;;;;;;;10.35;2.30;;;;;;;29.66;25.38;99849.28;4996114;28;20034;-77
2022/08/15 09:52:09;;;;;;;5.57;2.30;;;;;;;29.98;25.08;99846.25;5009521;28;20049;-75
2022/08/15 09:54:46;;;;;;;8.20;2.20;;;;;;;29.91;24.96;99842.78;5017570;28;20049;-75
2022/08/15 09:57:29;;;;;;;8.63;2.40;;;;;;;30.40;24.46;99851.72;5017083;28;20045;-77
2022/08/15 10:00:19;;;;;;;7.40;2.25;;;;;;;30.75;23.69;99840.66;5016840;28;20041;-75
2022/08/15 10:02:49;;;;;;;16.50;2.75;;;;;;;30.89;23.51;99847.59;5033257;28;20042;-74
2022/08/15 10:05:27;;;;;;;14.75;2.60;;;;;;;30.62;23.95;99844.50;5000689;28;20037;-76
2022/08/15 10:08:01;;;;;;;19.60;2.50;;;;;;;30.99;23.98;99843.34;5033662;28;20069;-76
2022/08/15 10:10:36;;;;;;;6.82;2.40;;;;;;;31.76;23.17;99851.22;5033141;28;20519;-76
2022/08/15 10:13:09;;;;;;;9.98;2.90;;;;;;;32.27;22.54;99832.72;5033092;28;20048;-76
2022/08/15 10:15:45;;;;;;;8.57;2.63;;;;;;;32.04;22.42;99842.88;5017035;28;20041;-75
2022/08/15 10:18:22;;;;;;;20.67;3.13;;;;;;;31.91;22.74;99848.75;5033323;28;20071;-75
2022/08/15 10:21:16;;;;;;;8.80;2.50;;;;;;;31.27;23.12;99854.44;5034549;28;20043;-76
2022/08/15 10:23:46;;;;;;;13.00;3.17;;;;;;;31.94;22.85;99847.44;5034240;28;20080;-76
2022/08/15 10:26:23;;;;;;;12.50;2.58;;;;;;;32.17;21.84;99848.09;5016251;28;20175;-75
2022/08/15 10:29:25;;;;;;;6.45;2.72;;;;;;;32.54;21.61;99844.81;5016050;28;20037;-76
2022/08/15 10:31:57;;;;;;;6.85;2.45;;;;;;;33.25;21.41;99846.84;5014156;28;20046;-77
2022/08/15 10:34:29;;;;;;;17.20;2.67;;;;;;;33.63;20.62;99845.03;5016506;28;20195;-76
2022/08/15 10:37:33;;;;;;;11.63;2.60;;;;;;;33.41;21.14;99851.47;5034424;28;20049;-75
2022/08/15 10:40:36;;;;;;;7.00;2.28;;;;;;;32.99;20.91;99842.94;5012544;28;20073;-77
2022/08/15 10:43:27;;;;;;;17.50;2.70;;;;;;;32.74;21.05;99848.94;5033458;28;20059;-76
2022/08/15 10:46:13;;;;;;;13.90;2.17;;;;;;;32.89;21.32;99843.63;5014751;28;20044;-76
2022/08/15 10:48:43;;;;;;;5.03;2.25;;;;;;;33.22;20.72;99842.66;5015819;28;20499;-76
2022/08/15 10:51:46;;;;;;;11.85;2.72;;;;;;;32.82;20.79;99851.28;5032692;28;20041;-76
2022/08/15 10:54:16;;;;;;;7.35;2.10;;;;;;;32.91;20.86;99843.34;4999608;28;20085;-75
2022/08/15 10:56:42;;;;;;;4.50;2.17;;;;;;;33.40;20.57;99849.81;5032138;28;20516;-76
2022/08/15 10:59:16;;;;;;;10.52;3.55;;;;;;;34.07;19.91;99854.91;5015930;28;20048;-76
2022/08/15 11:01:45;;;;;;;12.45;3.47;;;;;;;34.09;19.56;99849.13;5032762;28;20572;-75
2022/08/15 11:04:26;;;;;;;12.77;4.10;;;;;;;32.70;21.20;99850.56;5033598;28;20049;-75
2022/08/15 11:06:53;;;;;;;10.38;2.90;;;;;;;33.33;20.64;99860.25;4999637;28;20045;-75
2022/08/15 11:09:22;;;;;;;9.80;2.85;;;;;;;34.29;19.88;99852.03;5032061;28;20144;-75
2022/08/15 11:11:50;;;;;;;6.72;2.30;;;;;;;34.98;19.37;99859.41;5032039;28;20045;-76
2022/08/15 11:14:20;;;;;;;8.77;2.50;;;;;;;34.93;19.13;99864.94;5031814;28;20049;-75
2022/08/15 11:16:51;;;;;;;9.73;2.38;;;;;;;34.81;19.34;99858.75;4999144;28;20044;-76
2022/08/15 11:19:26;;;;;;;12.40;2.63;;;;;;;34.78;19.13;99853.75;5033242;28;20485;-77
2022/08/15 11:21:59;;;;;;;8.32;2.20;;;;;;;35.06;19.01;99854.47;5031759;28;20049;-77
2022/08/15 11:24:39;;;;;;;19.08;2.75;;;;;;;35.40;18.64;99855.69;5033100;28;20091;-77
2022/08/15 11:27:19;;;;;;;10.95;2.83;;;;;;;35.83;18.13;99848.00;5015614;28;20049;-77
2022/08/15 11:29:48;;;;;;;11.63;2.90;;;;;;;35.77;18.14;99843.56;5031692;28;20500;-76
2022/08/15 11:32:37;;;;;;;14.48;2.45;;;;;;;35.76;17.75;99841.88;5031713;28;20087;-75
2022/08/15 11:35:29;;;;;;;9.38;2.55;;;;;;;35.45;18.23;99852.91;5031908;28;20075;-76
2022/08/15 11:37:58;;;;;;;3.97;2.25;;;;;;;35.26;18.06;99841.47;4998792;28;20038;-76
2022/08/15 11:40:29;;;;;;;10.13;2.20;;;;;;;35.42;18.12;99847.91;5015074;28;20053;-76
2022/08/15 11:43:00;;;;;;;4.93;1.90;;;;;;;35.36;18.27;99851.78;5015642;28;20551;-77
2022/08/15 11:45:36;;;;;;;5.53;2.10;;;;;;;35.89;17.65;99852.47;5015602;28;20076;-76
2022/08/15 11:48:10;;;;;;;8.93;2.35;;;;;;;36.23;17.19;99851.94;5031693;28;20041;-76
2022/08/15 11:50:53;;;;;;;11.45;2.17;;;;;;;36.46;17.66;99844.94;5015013;28;20051;-77
2022/08/15 11:53:19;;;;;;;6.65;2.03;;;;;;;36.69;17.04;99846.28;4998811;28;20041;-77
2022/08/15 11:55:47;;;;;;;8.43;2.20;;;;;;;36.97;17.18;99827.25;5031828;28;20412;-76
2022/08/15 11:58:12;;;;;;;9.40;2.40;;;;;;;37.27;16.98;99846.63;5036092;28;20095;-77
2022/08/15 12:00:59;;;;;;;6.13;1.98;;;;;;;37.06;16.94;99843.13;5034132;28;20294;-77
2022/08/15 12:03:32;;;;;;;5.43;2.30;;;;;;;36.91;17.52;99840.38;5017307;28;20060;-76
2022/08/15 12:06:19;;;;;;;11.73;2.03;;;;;;;36.30;18.24;99846.91;5016155;28;20787;-76
2022/08/15 12:08:47;;;;;;;5.03;1.98;;;;;;;36.65;17.77;99845.19;5000950;28;20048;-77